Time;durP1;ratioP1;P1;durP2;ratioP2;P2;SDS_P1;SDS_P2;PMS_P1;PMS_P2;Temp;Humidity;BMP_temperature;BMP_pressure;BME280_temperature;BME280_humidity;BME280_pressure;Samples;Min_cycle;Max_cycle;Signal;HPM_P1;HPM_P2
2022/03/31 00:00:57;;;;;;;8.90;7.67;;;8.70;93.30;;;;;;5004911;28;20194;-91
2022/03/31 00:03:23;;;;;;;14.83;8.40;;;8.70;93.30;;;;;;5000659;28;20268;-92
2022/03/31 00:05:49;;;;;;;11.80;8.43;;;8.60;93.50;;;;;;4997949;28;20242;-92
2022/03/31 00:08:17;;;;;;;12.80;8.27;;;8.60;93.50;;;;;;4980443;28;20179;-92
2022/03/31 00:10:46;;;;;;;13.00;8.17;;;8.70;93.50;;;;;;4980791;28;20180;-91
2022/03/31 00:13:15;;;;;;;10.50;8.30;;;8.70;93.30;;;;;;5002625;28;20176;-86
2022/03/31 00:15:41;;;;;;;15.60;8.27;;;8.70;93.50;;;;;;4998472;28;20185;-88
2022/03/31 00:18:09;;;;;;;15.80;8.53;;;8.60;93.50;;;;;;4983230;28;20184;-87
2022/03/31 00:20:35;;;;;;;13.43;8.37;;;8.60;93.50;;;;;;5009223;28;20179;-87
2022/03/31 00:23:00;;;;;;;13.63;8.60;;;8.60;93.60;;;;;;5019681;28;20188;-84
2022/03/31 00:25:26;;;;;;;11.70;8.47;;;8.50;93.60;;;;;;5017917;28;20231;-85
2022/03/31 00:27:56;;;;;;;13.10;8.63;;;8.50;93.60;;;;;;5003597;28;20166;-83
2022/03/31 00:30:22;;;;;;;11.57;8.17;;;8.50;93.70;;;;;;5020723;28;20174;-86
2022/03/31 00:32:47;;;;;;;13.10;8.07;;;8.50;93.70;;;;;;5005841;28;20183;-87
2022/03/31 00:35:13;;;;;;;11.97;8.43;;;8.40;93.90;;;;;;5003735;28;20208;-87
2022/03/31 00:37:44;;;;;;;10.87;8.30;;;8.40;93.80;;;;;;5003181;28;20208;-89
2022/03/31 00:40:15;;;;;;;16.97;8.93;;;8.40;93.90;;;;;;5001458;28;20229;-85
2022/03/31 00:42:43;;;;;;;13.73;8.03;;;8.40;94.00;;;;;;4998281;28;20616;-91
2022/03/31 00:45:14;;;;;;;12.83;7.97;;;8.40;94.00;;;;;;5000346;28;20210;-88
2022/03/31 00:47:40;;;;;;;14.60;8.27;;;8.40;94.10;;;;;;4997296;28;20621;-90
2022/03/31 00:50:07;;;;;;;13.03;8.40;;;8.40;93.90;;;;;;4997563;28;20667;-89
2022/03/31 00:52:33;;;;;;;15.37;8.43;;;8.40;93.90;;;;;;4997924;28;20181;-91
2022/03/31 00:55:00;;;;;;;11.73;7.47;;;8.40;93.80;;;;;;4984967;28;20178;-89
2022/03/31 00:57:26;;;;;;;12.63;7.60;;;8.50;93.60;;;;;;4996972;28;20248;-89
2022/03/31 00:59:53;;;;;;;13.27;7.50;;;8.50;93.60;;;;;;4996468;28;20199;-91
2022/03/31 01:02:19;;;;;;;10.70;8.03;;;8.60;93.60;;;;;;4995961;28;20182;-85
2022/03/31 01:04:46;;;;;;;12.67;8.20;;;8.60;93.50;;;;;;4996234;28;20197;-88
2022/03/31 01:07:12;;;;;;;13.97;8.33;;;8.50;93.50;;;;;;4996364;28;20260;-86
2022/03/31 01:09:38;;;;;;;14.97;8.20;;;8.50;93.50;;;;;;4996403;28;20259;-88
2022/03/31 01:12:04;;;;;;;15.27;8.77;;;8.60;93.50;;;;;;4996419;28;20204;-88
2022/03/31 01:14:30;;;;;;;13.63;7.93;;;8.60;93.50;;;;;;4995967;28;20172;-84
2022/03/31 01:16:56;;;;;;;14.67;8.67;;;8.60;93.30;;;;;;4996149;28;20174;-85
2022/03/31 01:19:22;;;;;;;12.60;7.73;;;8.60;93.30;;;;;;4995821;28;20180;-85
2022/03/31 01:21:48;;;;;;;14.87;7.50;;;8.50;93.30;;;;;;4996046;28;20188;-88
2022/03/31 01:24:14;;;;;;;10.63;7.93;;;8.50;93.40;;;;;;4995736;28;20698;-87
2022/03/31 01:26:41;;;;;;;13.97;8.73;;;8.40;93.40;;;;;;4995572;28;20576;-85
2022/03/31 01:29:08;;;;;;;16.13;8.27;;;8.40;93.50;;;;;;4995681;28;20184;-86
2022/03/31 01:31:36;;;;;;;12.80;8.17;;;8.40;93.50;;;;;;4999051;28;20216;-83
2022/03/31 01:34:04;;;;;;;11.50;7.53;;;8.40;93.50;;;;;;4999295;28;20578;-87
2022/03/31 01:36:30;;;;;;;12.80;7.73;;;8.40;93.70;;;;;;4962826;28;20233;-85
2022/03/31 01:38:56;;;;;;;16.17;8.47;;;8.30;93.60;;;;;;4996044;28;20184;-84
2022/03/31 01:41:22;;;;;;;11.10;8.47;;;8.30;93.70;;;;;;4996235;28;20171;-85
2022/03/31 01:43:48;;;;;;;13.67;7.90;;;8.20;93.80;;;;;;4995290;28;20188;-84
2022/03/31 01:46:14;;;;;;;13.57;7.67;;;8.20;93.90;;;;;;4995529;28;20222;-84
2022/03/31 01:48:40;;;;;;;15.00;7.93;;;8.10;93.90;;;;;;4995123;28;20538;-85
2022/03/31 01:51:07;;;;;;;15.30;8.20;;;8.10;94.10;;;;;;4995743;28;20187;-85
2022/03/31 01:53:36;;;;;;;13.33;7.97;;;8.10;94.10;;;;;;4996144;28;20178;-89
2022/03/31 01:56:03;;;;;;;13.93;8.37;;;8.00;94.30;;;;;;4978457;28;20580;-89
2022/03/31 01:58:29;;;;;;;13.20;8.77;;;7.90;94.40;;;;;;4995490;28;20183;-85
2022/03/31 02:00:55;;;;;;;13.93;9.47;;;8.00;94.50;;;;;;4996612;28;20198;-86
2022/03/31 02:03:23;;;;;;;15.00;8.77;;;7.90;94.70;;;;;;4996906;28;20195;-83
2022/03/31 02:05:50;;;;;;;10.33;8.60;;;7.80;94.80;;;;;;4996727;28;20625;-83
2022/03/31 02:08:17;;;;;;;13.73;8.40;;;7.90;94.70;;;;;;4996042;28;20220;-83
2022/03/31 02:10:43;;;;;;;15.23;8.53;;;7.90;94.70;;;;;;4995494;28;20590;-82
2022/03/31 02:13:09;;;;;;;10.10;8.13;;;7.90;94.80;;;;;;4995710;28;20201;-82
2022/03/31 02:15:35;;;;;;;12.10;8.37;;;7.80;94.90;;;;;;5006576;28;20257;-83
2022/03/31 02:18:03;;;;;;;13.97;8.53;;;7.90;94.90;;;;;;5015998;28;20224;-82
2022/03/31 02:20:31;;;;;;;14.87;8.67;;;8.00;94.70;;;;;;5010736;28;20661;-83
2022/03/31 02:23:02;;;;;;;10.60;8.63;;;8.00;94.70;;;;;;5001960;28;20195;-85
2022/03/31 02:25:28;;;;;;;13.60;7.87;;;7.80;94.90;;;;;;4999442;28;20252;-89
2022/03/31 02:27:55;;;;;;;11.20;9.00;;;7.70;94.90;;;;;;4994985;28;20239;-87
2022/03/31 02:30:22;;;;;;;16.07;8.93;;;7.80;95.00;;;;;;4994697;28;20207;-87
2022/03/31 02:32:49;;;;;;;12.97;8.40;;;7.70;95.00;;;;;;4994817;28;20175;-85
2022/03/31 02:35:15;;;;;;;12.43;8.70;;;7.70;95.10;;;;;;4995307;28;20178;-86
2022/03/31 02:37:40;;;;;;;14.33;8.30;;;7.70;95.10;;;;;;4995065;28;20185;-89
2022/03/31 02:40:07;;;;;;;11.27;8.40;;;7.70;95.20;;;;;;4995049;28;20232;-86
2022/03/31 02:42:35;;;;;;;15.77;8.63;;;7.60;95.20;;;;;;4977720;28;20276;-88
2022/03/31 02:45:05;;;;;;;13.43;8.20;;;7.60;95.20;;;;;;4977969;28;20181;-89
2022/03/31 02:47:33;;;;;;;13.90;8.50;;;7.60;95.40;;;;;;4995161;28;20159;-91
2022/03/31 02:49:59;;;;;;;10.77;8.47;;;7.50;95.50;;;;;;4995997;28;20167;-91
2022/03/31 02:52:24;;;;;;;13.30;8.43;;;7.60;95.60;;;;;;4995350;28;20514;-90
2022/03/31 02:57:35;;;;;;;12.47;8.33;;;7.70;95.60;;;;;;5001209;28;20244;-91
2022/03/31 03:00:02;;;;;;;9.80;7.47;;;7.70;95.50;;;;;;4983461;28;20205;-88
2022/03/31 03:02:27;;;;;;;14.77;8.60;;;7.80;95.40;;;;;;5000993;28;20533;-89
2022/03/31 03:04:54;;;;;;;15.70;8.37;;;7.70;95.40;;;;;;5001158;28;20170;-86
2022/03/31 03:07:20;;;;;;;14.20;8.33;;;7.80;95.40;;;;;;5000655;28;20170;-86
2022/03/31 03:09:45;;;;;;;10.70;8.07;;;7.80;95.50;;;;;;4994077;28;20168;-84
2022/03/31 03:12:12;;;;;;;9.17;7.37;;;7.90;95.40;;;;;;5018158;28;20226;-86
2022/03/31 03:14:38;;;;;;;12.43;8.17;;;8.00;95.30;;;;;;5018966;28;20196;-87
2022/03/31 03:17:04;;;;;;;10.03;7.97;;;8.00;95.30;;;;;;5018791;28;20212;-83
2022/03/31 03:19:30;;;;;;;10.87;7.90;;;7.90;95.40;;;;;;5008045;28;20196;-84
2022/03/31 03:21:56;;;;;;;15.17;8.53;;;8.00;95.30;;;;;;5004953;28;20206;-84
2022/03/31 03:24:22;;;;;;;10.93;9.37;;;8.00;95.20;;;;;;4986604;28;20519;-85
2022/03/31 03:26:48;;;;;;;15.27;9.23;;;8.00;95.10;;;;;;4999428;28;20208;-83
2022/03/31 03:29:14;;;;;;;13.83;8.97;;;8.10;95.00;;;;;;5000511;28;20229;-84
2022/03/31 03:31:42;;;;;;;16.60;8.90;;;8.10;95.00;;;;;;4998687;28;20196;-87
2022/03/31 03:34:09;;;;;;;16.77;8.87;;;8.00;95.10;;;;;;4998139;28;20223;-86
2022/03/31 03:36:35;;;;;;;13.40;8.40;;;8.10;95.10;;;;;;4999383;28;20171;-86
2022/03/31 03:39:01;;;;;;;13.27;8.23;;;8.10;94.90;;;;;;5002111;28;20177;-86
2022/03/31 03:41:27;;;;;;;13.33;8.90;;;8.10;94.90;;;;;;4989269;28;20188;-83
2022/03/31 03:43:53;;;;;;;12.70;8.80;;;8.20;95.00;;;;;;5005594;28;20207;-86
2022/03/31 03:46:19;;;;;;;15.13;9.23;;;8.20;94.80;;;;;;5010208;28;20245;-85
2022/03/31 03:48:45;;;;;;;18.10;9.17;;;8.30;95.00;;;;;;5009510;28;20175;-87
2022/03/31 03:51:11;;;;;;;13.07;8.57;;;8.30;95.00;;;;;;4986244;28;20182;-89
2022/03/31 03:53:37;;;;;;;13.70;8.90;;;8.30;94.80;;;;;;4982961;28;20619;-90
2022/03/31 03:56:03;;;;;;;12.73;9.67;;;8.30;94.70;;;;;;5000231;28;20659;-89
2022/03/31 03:58:28;;;;;;;16.20;9.57;;;8.40;94.40;;;;;;4998193;28;20181;-90
2022/03/31 04:00:54;;;;;;;10.73;9.40;;;8.40;94.40;;;;;;4998013;28;20518;-90
2022/03/31 04:03:20;;;;;;;15.23;9.80;;;8.40;94.40;;;;;;4998995;28;20202;-90
2022/03/31 04:05:46;;;;;;;14.40;9.10;;;8.40;94.30;;;;;;5003729;28;20674;-93
2022/03/31 04:08:14;;;;;;;15.73;9.50;;;8.40;94.30;;;;;;4998563;28;20191;-91
2022/03/31 04:10:39;;;;;;;12.87;10.10;;;8.40;94.20;;;;;;4980620;28;20552;-88
2022/03/31 04:13:05;;;;;;;18.97;10.27;;;8.50;94.30;;;;;;4997663;28;20258;-86
2022/03/31 04:15:31;;;;;;;14.50;10.40;;;8.50;94.20;;;;;;4982198;28;20187;-89
2022/03/31 04:17:57;;;;;;;13.33;9.53;;;8.50;94.20;;;;;;4998654;28;20182;-87
2022/03/31 04:20:23;;;;;;;15.70;9.97;;;8.40;94.20;;;;;;4997694;28;20167;-85
2022/03/31 04:22:48;;;;;;;17.07;10.93;;;8.40;94.10;;;;;;5001844;28;20182;-84
2022/03/31 04:25:14;;;;;;;13.30;10.63;;;8.50;94.00;;;;;;5004688;28;20565;-83
2022/03/31 04:27:40;;;;;;;17.87;10.63;;;8.50;93.80;;;;;;5001371;28;20211;-85
2022/03/31 04:30:09;;;;;;;15.07;10.50;;;8.60;93.80;;;;;;4998381;28;20184;-86
2022/03/31 04:32:36;;;;;;;12.00;9.93;;;8.60;93.70;;;;;;4998393;28;20179;-85
2022/03/31 04:35:02;;;;;;;16.13;10.33;;;8.60;93.50;;;;;;4999256;28;20208;-89
2022/03/31 04:37:28;;;;;;;14.83;10.60;;;8.60;93.50;;;;;;5002279;28;20174;-89
2022/03/31 04:39:54;;;;;;;16.40;10.23;;;8.70;93.40;;;;;;4999908;28;20273;-86
2022/03/31 04:42:20;;;;;;;18.63;10.57;;;8.70;93.50;;;;;;4997952;28;20190;-84
2022/03/31 04:44:46;;;;;;;11.40;9.47;;;8.60;93.60;;;;;;4998856;28;20180;-84
2022/03/31 04:47:12;;;;;;;13.50;9.93;;;8.70;93.60;;;;;;4979528;28;20702;-83
2022/03/31 04:49:38;;;;;;;15.23;9.40;;;8.80;93.50;;;;;;4996141;28;20181;-83
2022/03/31 04:52:05;;;;;;;16.83;10.23;;;8.80;93.50;;;;;;4996600;28;20268;-82
2022/03/31 04:54:30;;;;;;;17.13;10.13;;;8.80;93.50;;;;;;4997333;28;20259;-84
2022/03/31 04:56:56;;;;;;;14.37;9.50;;;8.80;93.60;;;;;;4996805;28;20275;-85
2022/03/31 04:59:22;;;;;;;15.57;9.90;;;8.90;93.60;;;;;;4996157;28;20227;-85
2022/03/31 05:01:48;;;;;;;13.77;8.90;;;9.00;93.60;;;;;;4995994;28;20259;-88
2022/03/31 05:04:15;;;;;;;16.10;9.27;;;9.10;93.50;;;;;;4995944;28;20174;-89
2022/03/31 05:06:41;;;;;;;15.10;8.73;;;9.20;93.40;;;;;;4996022;28;20211;-87
2022/03/31 05:09:07;;;;;;;17.50;8.93;;;9.10;93.50;;;;;;4996162;28;20181;-88
2022/03/31 05:11:34;;;;;;;13.40;9.17;;;9.10;93.60;;;;;;4996101;28;20187;-90
2022/03/31 05:13:59;;;;;;;15.13;9.03;;;9.10;94.10;;;;;;4996407;28;20638;-90
2022/03/31 05:16:25;;;;;;;12.23;9.27;;;9.10;93.70;;;;;;4995063;28;20224;-87
2022/03/31 05:18:51;;;;;;;12.23;8.70;;;9.00;93.90;;;;;;4996234;28;20170;-89
2022/03/31 05:21:17;;;;;;;17.87;9.93;;;9.10;94.40;;;;;;4999792;28;20246;-87
2022/03/31 05:23:43;;;;;;;12.23;9.30;;;9.10;94.50;;;;;;5002944;28;20297;-83
2022/03/31 05:26:09;;;;;;;13.93;10.00;;;9.20;94.50;;;;;;4979166;28;20611;-82
2022/03/31 05:28:34;;;;;;;13.73;10.23;;;9.20;94.80;;;;;;4997352;28;20173;-85
2022/03/31 05:31:00;;;;;;;15.87;10.70;;;9.20;94.80;;;;;;4995635;28;20174;-83
2022/03/31 05:33:26;;;;;;;14.13;10.23;;;9.20;95.10;;;;;;4995650;28;20172;-84
2022/03/31 05:35:52;;;;;;;19.13;10.80;;;9.20;95.50;;;;;;4995350;28;20216;-85
2022/03/31 05:38:19;;;;;;;15.00;9.73;;;9.10;95.90;;;;;;4977906;28;20522;-86
2022/03/31 05:40:46;;;;;;;16.97;10.37;;;9.10;95.70;;;;;;4994025;28;20229;-84
2022/03/31 05:43:12;;;;;;;18.53;9.90;;;9.20;96.10;;;;;;4994146;28;20173;-86
2022/03/31 05:45:38;;;;;;;14.53;9.70;;;9.20;96.40;;;;;;4994659;28;20203;-85
2022/03/31 05:48:04;;;;;;;18.40;9.73;;;9.20;95.70;;;;;;4995589;28;20181;-84
2022/03/31 05:50:30;;;;;;;16.07;9.63;;;9.20;96.10;;;;;;4996058;28;20262;-85
2022/03/31 05:52:56;;;;;;;15.83;10.50;;;9.20;96.20;;;;;;4996398;28;20180;-86
2022/03/31 05:55:22;;;;;;;18.83;10.10;;;9.20;96.00;;;;;;4996162;28;20185;-86
2022/03/31 05:57:48;;;;;;;14.63;10.03;;;9.20;96.20;;;;;;4977998;28;20241;-84
2022/03/31 06:00:20;;;;;;;17.43;10.30;;;9.10;96.30;;;;;;4994691;28;20173;-84
2022/03/31 06:02:46;;;;;;;13.47;10.17;;;9.10;96.90;;;;;;4977385;28;20707;-84
2022/03/31 06:05:14;;;;;;;17.77;10.27;;;9.20;97.40;;;;;;4994708;28;20607;-85
2022/03/31 06:07:40;;;;;;;13.20;10.03;;;9.10;97.20;;;;;;4994815;28;20224;-88
2022/03/31 06:10:07;;;;;;;17.97;11.17;;;9.10;97.00;;;;;;4995001;28;20173;-89
2022/03/31 06:12:34;;;;;;;16.67;10.30;;;9.10;97.50;;;;;;4995009;28;20526;-87
2022/03/31 06:15:01;;;;;;;16.63;11.83;;;9.10;97.00;;;;;;4995310;28;20571;-88
2022/03/31 06:17:27;;;;;;;13.27;10.50;;;9.00;96.90;;;;;;4995576;28;20168;-88
2022/03/31 06:19:53;;;;;;;14.87;11.40;;;9.00;97.40;;;;;;4995012;28;20178;-90
2022/03/31 06:22:19;;;;;;;15.60;10.57;;;9.00;97.50;;;;;;4977426;28;20171;-90
2022/03/31 06:24:45;;;;;;;15.67;10.80;;;9.00;97.50;;;;;;4994804;28;20580;-86
2022/03/31 06:27:11;;;;;;;21.47;14.73;;;9.10;97.90;;;;;;4994290;28;20255;-87
2022/03/31 06:29:38;;;;;;;18.00;13.47;;;9.10;98.30;;;;;;4977000;28;20226;-85
2022/03/31 06:32:06;;;;;;;16.50;12.47;;;9.10;99.70;;;;;;4994615;28;20171;-86
2022/03/31 06:34:32;;;;;;;17.80;12.90;;;9.20;99.70;;;;;;4996058;28;20632;-86
2022/03/31 06:36:58;;;;;;;22.03;12.60;;;9.10;99.30;;;;;;4996552;28;20529;-87
2022/03/31 06:39:27;;;;;;;19.30;12.73;;;9.10;99.30;;;;;;4995661;28;20234;-88
2022/03/31 06:41:53;;;;;;;24.27;13.33;;;9.00;99.40;;;;;;4995580;28;20261;-85
2022/03/31 06:44:21;;;;;;;15.20;13.13;;;8.90;99.60;;;;;;4994660;28;20251;-84
2022/03/31 06:46:47;;;;;;;23.13;14.23;;;8.80;99.90;;;;;;4976716;28;20223;-84
2022/03/31 06:49:13;;;;;;;20.07;13.27;;;8.80;99.90;;;;;;4994738;28;20171;-86
2022/03/31 06:51:39;;;;;;;23.87;14.50;;;8.80;99.90;;;;;;4995261;28;20199;-87
2022/03/31 06:54:05;;;;;;;18.37;11.73;;;8.80;99.90;;;;;;4995641;28;20187;-88
2022/03/31 06:56:31;;;;;;;16.60;12.47;;;8.80;99.90;;;;;;4996606;28;20534;-87
2022/03/31 06:58:59;;;;;;;23.03;12.87;;;8.90;99.90;;;;;;4996874;28;20203;-88
2022/03/31 07:01:25;;;;;;;18.40;12.57;;;8.90;99.90;;;;;;4978054;28;20180;-89
2022/03/31 07:03:51;;;;;;;15.80;12.30;;;8.80;99.90;;;;;;4995694;28;20175;-86
2022/03/31 07:06:18;;;;;;;18.20;11.77;;;8.80;99.90;;;;;;4997570;28;20314;-88
2022/03/31 07:08:44;;;;;;;22.70;12.90;;;8.70;99.90;;;;;;5002165;28;20170;-84
2022/03/31 07:11:10;;;;;;;20.03;12.90;;;8.60;99.90;;;;;;4997163;28;20654;-87
2022/03/31 07:13:36;;;;;;;13.93;12.13;;;8.50;99.90;;;;;;5003615;28;20182;-84
2022/03/31 07:16:03;;;;;;;19.20;11.73;;;8.40;99.90;;;;;;4984110;28;20181;-85
2022/03/31 07:18:30;;;;;;;15.90;12.60;;;8.50;99.90;;;;;;4979569;28;20207;-85
2022/03/31 07:20:59;;;;;;;14.97;11.53;;;8.60;99.90;;;;;;5002151;28;20174;-88
2022/03/31 07:23:26;;;;;;;17.27;11.90;;;8.70;99.90;;;;;;5007077;28;20172;-86
2022/03/31 07:25:58;;;;;;;24.03;13.40;;;8.70;99.90;;;;;;4996946;28;20203;-88
2022/03/31 07:28:24;;;;;;;18.47;12.40;;;8.70;99.90;;;;;;4995047;28;20181;-88
2022/03/31 07:30:50;;;;;;;18.83;12.73;;;8.70;99.90;;;;;;4995352;28;20186;-89
2022/03/31 07:33:19;;;;;;;18.17;12.93;;;8.70;99.90;;;;;;4995494;28;20232;-89
2022/03/31 07:35:47;;;;;;;21.20;13.67;;;8.70;99.90;;;;;;4994719;28;20309;-86
2022/03/31 07:38:14;;;;;;;24.73;13.73;;;8.80;99.90;;;;;;4995282;28;20201;-88
2022/03/31 07:40:40;;;;;;;16.50;12.90;;;8.80;99.90;;;;;;4996934;28;20278;-88
2022/03/31 07:43:07;;;;;;;17.10;13.13;;;8.70;99.90;;;;;;4997528;28;20179;-88
2022/03/31 07:45:34;;;;;;;18.17;13.07;;;8.80;99.90;;;;;;4997495;28;20215;-89
2022/03/31 07:48:02;;;;;;;17.63;12.10;;;8.80;99.90;;;;;;4997537;28;20265;-89
2022/03/31 07:50:28;;;;;;;16.63;13.20;;;8.90;99.90;;;;;;4997600;28;20238;-87
2022/03/31 07:52:55;;;;;;;19.40;13.27;;;8.90;99.90;;;;;;4997241;28;20262;-87
2022/03/31 07:55:21;;;;;;;21.43;14.73;;;8.80;99.90;;;;;;4979628;28;20262;-84
2022/03/31 07:57:48;;;;;;;17.33;13.30;;;8.70;99.90;;;;;;4997152;28;20176;-85
2022/03/31 08:00:16;;;;;;;20.30;14.67;;;8.70;99.90;;;;;;4997127;28;20178;-85
2022/03/31 08:02:44;;;;;;;20.80;14.50;;;8.60;99.90;;;;;;4997129;28;20205;-86
2022/03/31 08:05:24;;;;;;;20.07;13.83;;;8.60;99.90;;;;;;4979392;28;20184;-85
2022/03/31 08:07:51;;;;;;;18.37;14.47;;;8.60;99.90;;;;;;4997058;28;20545;-87
2022/03/31 08:10:18;;;;;;;18.30;14.27;;;8.60;99.90;;;;;;4979524;28;20589;-84
2022/03/31 08:12:45;;;;;;;15.47;13.63;;;8.50;99.90;;;;;;4979434;28;20175;-85
2022/03/31 08:15:15;;;;;;;17.83;13.77;;;8.60;99.90;;;;;;4979954;28;20272;-84
2022/03/31 08:17:41;;;;;;;20.80;14.83;;;8.60;99.90;;;;;;4980713;28;20198;-83
2022/03/31 08:20:12;;;;;;;18.53;13.60;;;8.60;99.90;;;;;;4997440;28;20262;-84
2022/03/31 08:22:39;;;;;;;18.13;13.83;;;8.60;99.90;;;;;;4997616;28;20575;-84
2022/03/31 08:25:07;;;;;;;20.30;14.17;;;8.70;99.90;;;;;;4979246;28;20550;-88
2022/03/31 08:27:35;;;;;;;16.73;13.73;;;8.70;99.90;;;;;;4997227;28;20182;-88
2022/03/31 08:30:02;;;;;;;19.73;14.10;;;8.70;99.90;;;;;;4997635;28;20502;-86
2022/03/31 08:32:28;;;;;;;21.10;14.60;;;8.70;99.90;;;;;;4980808;28;20206;-89
2022/03/31 08:34:54;;;;;;;21.90;14.87;;;8.70;99.90;;;;;;4997070;28;20180;-88
2022/03/31 08:37:20;;;;;;;22.57;15.03;;;8.70;99.90;;;;;;4996787;28;20174;-88
2022/03/31 08:39:46;;;;;;;21.07;14.50;;;8.70;99.90;;;;;;4996513;28;20590;-88
2022/03/31 08:42:11;;;;;;;19.17;15.20;;;8.70;99.90;;;;;;4997549;28;20174;-88
2022/03/31 08:44:39;;;;;;;19.13;15.07;;;8.80;99.90;;;;;;4999964;28;20196;-87
2022/03/31 08:47:08;;;;;;;19.03;14.80;;;8.80;99.90;;;;;;5008234;28;20200;-88
2022/03/31 08:49:35;;;;;;;18.60;14.40;;;8.80;99.90;;;;;;5006765;28;20172;-88
2022/03/31 08:52:03;;;;;;;18.17;14.93;;;8.90;99.90;;;;;;5000719;28;20211;-84
2022/03/31 08:54:29;;;;;;;20.30;15.20;;;8.90;99.90;;;;;;5017075;28;20175;-87
2022/03/31 08:56:55;;;;;;;20.40;15.20;;;9.10;99.90;;;;;;5013895;28;20184;-87
2022/03/31 08:59:21;;;;;;;18.93;15.53;;;9.00;99.90;;;;;;5002967;28;20184;-88
2022/03/31 09:01:47;;;;;;;18.87;14.50;;;9.10;99.90;;;;;;4996753;28;20188;-86
2022/03/31 09:04:23;;;;;;;19.10;15.10;;;9.20;99.90;;;;;;4996990;28;20215;-87
2022/03/31 09:07:05;;;;;;;21.53;15.13;;;9.20;99.90;;;;;;4996059;28;20205;-87
2022/03/31 09:09:31;;;;;;;19.20;15.17;;;9.20;99.90;;;;;;4996002;28;20167;-87
2022/03/31 09:11:58;;;;;;;21.07;14.77;;;9.20;99.90;;;;;;4978398;28;20581;-87
2022/03/31 09:14:31;;;;;;;18.50;14.83;;;9.20;99.90;;;;;;4995837;28;20176;-87
2022/03/31 09:16:57;;;;;;;20.57;15.03;;;9.20;99.90;;;;;;4996284;28;20184;-88
2022/03/31 09:19:25;;;;;;;19.73;15.60;;;9.30;99.90;;;;;;4996213;28;20227;-88
2022/03/31 09:21:54;;;;;;;19.23;15.90;;;9.30;99.90;;;;;;4996579;28;20173;-88
2022/03/31 09:24:24;;;;;;;20.03;15.57;;;9.40;99.90;;;;;;4996955;28;20202;-88
2022/03/31 09:26:51;;;;;;;19.73;15.60;;;9.50;99.90;;;;;;4995938;28;20204;-86
2022/03/31 09:29:19;;;;;;;20.97;15.90;;;9.60;99.90;;;;;;4995888;28;20235;-86
2022/03/31 09:31:47;;;;;;;19.37;16.00;;;9.80;99.90;;;;;;4995949;28;20177;-85
2022/03/31 09:34:13;;;;;;;19.07;15.80;;;9.90;99.90;;;;;;4995980;28;20173;-85
2022/03/31 09:36:43;;;;;;;18.37;16.47;;;9.90;99.90;;;;;;4995741;28;20643;-86
2022/03/31 09:39:13;;;;;;;20.93;16.10;;;9.80;99.90;;;;;;4995231;28;20571;-87
2022/03/31 09:41:41;;;;;;;20.73;15.83;;;9.80;99.90;;;;;;4978281;28;20243;-85
2022/03/31 09:44:19;;;;;;;19.07;16.00;;;9.80;99.90;;;;;;4995637;28;20663;-87
2022/03/31 09:46:47;;;;;;;18.97;16.00;;;9.80;99.90;;;;;;4995622;28;20319;-87
2022/03/31 09:49:20;;;;;;;21.00;15.77;;;9.70;99.90;;;;;;4995506;28;20177;-86
2022/03/31 09:51:57;;;;;;;17.10;15.40;;;9.70;99.90;;;;;;4995263;28;20216;-88
2022/03/31 09:54:26;;;;;;;23.17;16.47;;;9.70;99.90;;;;;;4996124;28;20212;-87
2022/03/31 09:56:56;;;;;;;18.33;15.93;;;9.50;99.90;;;;;;4996319;28;20181;-87
2022/03/31 09:59:31;;;;;;;16.73;15.03;;;9.40;99.90;;;;;;4995291;28;20196;-88
2022/03/31 10:01:56;;;;;;;21.80;17.07;;;9.50;99.90;;;;;;4994511;28;20161;-86
2022/03/31 10:04:23;;;;;;;18.37;16.30;;;9.50;99.90;;;;;;4996249;28;20172;-89
2022/03/31 10:06:50;;;;;;;17.50;15.53;;;9.60;99.90;;;;;;4979581;28;20215;-90
2022/03/31 10:09:17;;;;;;;22.83;16.30;;;9.60;99.90;;;;;;4996734;28;20232;-88
2022/03/31 10:11:48;;;;;;;17.60;15.50;;;9.80;99.90;;;;;;4977356;28;20204;-89
2022/03/31 10:14:31;;;;;;;18.17;15.57;;;9.90;99.90;;;;;;4995079;28;20598;-88
2022/03/31 10:17:00;;;;;;;21.03;15.37;;;10.00;99.90;;;;;;4995056;28;20529;-89
2022/03/31 10:19:35;;;;;;;17.67;15.73;;;10.10;99.90;;;;;;4995044;28;20212;-88
2022/03/31 10:22:02;;;;;;;18.97;16.20;;;10.10;99.90;;;;;;4994513;28;20249;-89
2022/03/31 10:24:41;;;;;;;20.00;16.40;;;10.20;99.90;;;;;;4994562;28;20594;-86
2022/03/31 10:27:23;;;;;;;19.37;15.90;;;10.10;99.90;;;;;;4994659;28;20203;-87
2022/03/31 10:29:49;;;;;;;16.37;14.67;;;10.20;99.90;;;;;;4994700;28;20167;-86
2022/03/31 10:32:25;;;;;;;18.47;15.37;;;10.20;99.90;;;;;;4994570;28;20540;-88
2022/03/31 10:34:54;;;;;;;17.27;15.00;;;10.20;99.90;;;;;;4994552;28;20218;-86
2022/03/31 10:37:36;;;;;;;17.50;15.60;;;10.10;99.90;;;;;;4994998;28;20166;-88
2022/03/31 10:40:10;;;;;;;19.33;15.17;;;10.10;99.90;;;;;;4994249;28;20221;-83
2022/03/31 10:42:37;;;;;;;17.40;15.53;;;10.10;99.90;;;;;;4994523;28;20194;-84
2022/03/31 10:45:13;;;;;;;17.03;15.23;;;10.00;99.90;;;;;;4994139;28;20168;-88
2022/03/31 10:47:43;;;;;;;17.20;14.83;;;9.90;99.90;;;;;;4994200;28;20165;-86
2022/03/31 10:50:23;;;;;;;16.87;15.10;;;9.80;99.90;;;;;;4994610;28;20206;-86
2022/03/31 10:52:59;;;;;;;17.93;14.60;;;10.00;99.90;;;;;;4994688;28;20162;-86
2022/03/31 10:55:35;;;;;;;18.90;15.33;;;10.10;99.90;;;;;;4967991;28;20185;-87
2022/03/31 10:58:01;;;;;;;17.43;14.77;;;10.10;99.90;;;;;;4987101;28;20168;-88
2022/03/31 11:00:27;;;;;;;19.33;15.90;;;10.10;99.90;;;;;;4992347;28;20188;-86
2022/03/31 11:02:54;;;;;;;18.17;15.03;;;10.20;99.90;;;;;;4997255;28;20260;-87
2022/03/31 11:05:23;;;;;;;17.47;15.63;;;10.40;99.90;;;;;;4992100;28;20180;-84
2022/03/31 11:07:49;;;;;;;18.67;15.93;;;10.40;99.90;;;;;;4990740;28;20202;-85
2022/03/31 11:10:15;;;;;;;21.03;14.87;;;10.30;99.90;;;;;;4992358;28;20266;-87
2022/03/31 11:12:42;;;;;;;17.80;15.43;;;10.40;99.90;;;;;;4995944;28;20185;-85
2022/03/31 11:15:17;;;;;;;16.07;13.80;;;10.60;99.90;;;;;;4988811;28;20249;-86
2022/03/31 11:17:43;;;;;;;17.83;14.60;;;10.60;99.90;;;;;;5005206;28;20180;-85
2022/03/31 11:20:21;;;;;;;16.43;13.73;;;10.60;99.90;;;;;;5000269;28;20181;-84
2022/03/31 11:22:52;;;;;;;18.27;14.93;;;10.60;99.90;;;;;;4990979;28;20191;-83
2022/03/31 11:25:19;;;;;;;15.97;14.37;;;10.50;99.90;;;;;;4999697;28;20178;-89
2022/03/31 11:27:47;;;;;;;16.77;14.03;;;10.40;99.90;;;;;;4999234;28;20180;-84
2022/03/31 11:30:14;;;;;;;16.97;14.53;;;10.50;99.90;;;;;;4984720;28;20189;-85
2022/03/31 11:32:42;;;;;;;17.10;14.23;;;10.50;99.90;;;;;;5000852;28;20180;-86
2022/03/31 11:35:18;;;;;;;14.70;12.40;;;10.50;99.90;;;;;;4978497;28;20181;-85
2022/03/31 11:37:45;;;;;;;14.27;12.70;;;10.50;99.90;;;;;;4994143;28;20169;-87
2022/03/31 11:40:45;;;;;;;35.47;15.23;;;10.60;99.90;;;;;;4996790;28;20229;-84
2022/03/31 11:43:14;;;;;;;18.67;13.53;;;10.60;99.90;;;;;;4897666;29;20216;-88
2022/03/31 11:45:48;;;;;;;16.80;13.23;;;10.50;99.90;;;;;;4899127;29;20620;-87
2022/03/31 11:48:20;;;;;;;15.60;12.77;;;10.40;99.90;;;;;;4897364;29;20179;-85
2022/03/31 11:50:56;;;;;;;18.43;12.93;;;10.40;99.90;;;;;;4880467;29;20197;-86
2022/03/31 11:53:26;;;;;;;13.07;11.60;;;10.20;99.90;;;;;;4896775;29;20195;-86
2022/03/31 11:56:09;;;;;;;14.07;11.60;;;10.20;99.90;;;;;;4896711;29;20180;-85
2022/03/31 11:58:57;;;;;;;14.27;11.33;;;10.00;99.90;;;;;;4881799;29;20196;-85
2022/03/31 12:01:52;;;;;;;15.83;11.67;;;9.90;99.90;;;;;;4897212;29;20611;-86
2022/03/31 12:04:24;;;;;;;15.93;11.23;;;9.80;99.90;;;;;;4860730;29;20628;-88
2022/03/31 12:06:52;;;;;;;12.90;10.90;;;9.80;99.90;;;;;;4859561;29;20229;-87
2022/03/31 12:09:19;;;;;;;20.50;11.63;;;9.80;99.90;;;;;;4859740;29;20220;-86
2022/03/31 12:11:48;;;;;;;14.90;10.93;;;9.70;99.90;;;;;;4859339;29;20252;-88
2022/03/31 12:14:15;;;;;;;13.37;11.13;;;9.70;99.90;;;;;;4844211;29;20294;-87
2022/03/31 12:16:52;;;;;;;18.47;12.27;;;9.60;99.90;;;;;;4858942;29;20189;-87
2022/03/31 12:19:19;;;;;;;19.13;12.87;;;9.60;99.90;;;;;;4898423;29;20676;-88
2022/03/31 12:21:50;;;;;;;15.27;12.63;;;9.50;99.90;;;;;;4936519;29;20194;-91
2022/03/31 12:24:17;;;;;;;17.37;12.03;;;9.60;99.90;;;;;;4937160;29;20835;-86
2022/03/31 12:26:57;;;;;;;16.27;12.30;;;9.60;99.90;;;;;;4937113;29;20243;-89
2022/03/31 12:29:25;;;;;;;16.10;12.47;;;9.70;99.90;;;;;;4922011;29;20536;-90
2022/03/31 12:32:03;;;;;;;16.17;11.77;;;9.80;99.90;;;;;;4938067;29;20180;-87
2022/03/31 12:34:31;;;;;;;16.00;11.57;;;9.90;99.90;;;;;;4937038;29;20186;-86
2022/03/31 12:36:57;;;;;;;14.43;11.60;;;9.90;99.90;;;;;;4939807;29;20202;-90
2022/03/31 12:39:23;;;;;;;17.67;11.73;;;9.80;99.90;;;;;;4939298;29;20600;-85
2022/03/31 12:41:52;;;;;;;17.67;12.13;;;9.80;99.90;;;;;;4976999;28;20659;-85
2022/03/31 12:44:21;;;;;;;17.00;12.17;;;9.70;99.90;;;;;;4977407;28;20259;-87
2022/03/31 12:47:00;;;;;;;16.63;12.53;;;9.70;99.90;;;;;;4977357;28;20199;-85